sensor_id;sensor_type;location;lat;lon;timestamp;temperature;humidity
57564;DHT22;43400;45.926;6.724;2023-02-15T00:01:07;2.20;87.40
57564;DHT22;43400;45.926;6.724;2023-02-15T00:03:39;2.20;87.20
57564;DHT22;43400;45.926;6.724;2023-02-15T00:06:11;2.20;87.50
57564;DHT22;43400;45.926;6.724;2023-02-15T00:08:44;2.20;87.80
57564;DHT22;43400;45.926;6.724;2023-02-15T00:11:18;2.20;87.20
57564;DHT22;43400;45.926;6.724;2023-02-15T00:13:50;2.20;87.00
57564;DHT22;43400;45.926;6.724;2023-02-15T00:16:21;2.10;87.30
57564;DHT22;43400;45.926;6.724;2023-02-15T00:18:53;2.00;87.60
57564;DHT22;43400;45.926;6.724;2023-02-15T00:21:25;2.00;87.90
57564;DHT22;43400;45.926;6.724;2023-02-15T00:23:58;2.00;88.30
57564;DHT22;43400;45.926;6.724;2023-02-15T00:26:39;2.00;88.10
57564;DHT22;43400;45.926;6.724;2023-02-15T00:29:13;2.00;87.90
57564;DHT22;43400;45.926;6.724;2023-02-15T00:31:45;2.00;88.00
57564;DHT22;43400;45.926;6.724;2023-02-15T00:34:25;2.00;88.10
57564;DHT22;43400;45.926;6.724;2023-02-15T00:36:58;1.90;88.50
57564;DHT22;43400;45.926;6.724;2023-02-15T00:39:31;1.80;88.50
57564;DHT22;43400;45.926;6.724;2023-02-15T00:42:03;1.80;88.50
57564;DHT22;43400;45.926;6.724;2023-02-15T00:44:35;1.80;88.10
57564;DHT22;43400;45.926;6.724;2023-02-15T00:47:07;1.80;88.50
57564;DHT22;43400;45.926;6.724;2023-02-15T00:49:39;1.70;88.30
57564;DHT22;43400;45.926;6.724;2023-02-15T00:52:11;1.70;88.60
57564;DHT22;43400;45.926;6.724;2023-02-15T00:54:43;1.60;89.20
57564;DHT22;43400;45.926;6.724;2023-02-15T00:57:15;1.60;89.40
57564;DHT22;43400;45.926;6.724;2023-02-15T00:59:46;1.70;89.20
57564;DHT22;43400;45.926;6.724;2023-02-15T01:02:19;1.60;90.00
57564;DHT22;43400;45.926;6.724;2023-02-15T01:04:51;1.50;90.00
57564;DHT22;43400;45.926;6.724;2023-02-15T01:07:23;1.50;89.90
57564;DHT22;43400;45.926;6.724;2023-02-15T01:09:55;1.40;89.40
57564;DHT22;43400;45.926;6.724;2023-02-15T01:12:26;1.40;89.70
57564;DHT22;43400;45.926;6.724;2023-02-15T01:14:58;1.40;89.50
57564;DHT22;43400;45.926;6.724;2023-02-15T01:17:31;1.40;89.80
57564;DHT22;43400;45.926;6.724;2023-02-15T01:20:06;1.30;89.90
57564;DHT22;43400;45.926;6.724;2023-02-15T01:22:38;1.20;90.20
57564;DHT22;43400;45.926;6.724;2023-02-15T01:25:12;1.20;90.30
57564;DHT22;43400;45.926;6.724;2023-02-15T01:27:45;1.20;90.50
57564;DHT22;43400;45.926;6.724;2023-02-15T01:30:17;1.20;90.30
57564;DHT22;43400;45.926;6.724;2023-02-15T01:32:49;1.20;90.50
57564;DHT22;43400;45.926;6.724;2023-02-15T01:35:23;1.30;90.80
57564;DHT22;43400;45.926;6.724;2023-02-15T01:37:55;1.30;90.60
57564;DHT22;43400;45.926;6.724;2023-02-15T01:40:28;1.30;90.80
57564;DHT22;43400;45.926;6.724;2023-02-15T01:42:59;1.10;90.60
57564;DHT22;43400;45.926;6.724;2023-02-15T01:45:32;1.20;91.00
57564;DHT22;43400;45.926;6.724;2023-02-15T01:48:14;1.20;90.90
57564;DHT22;43400;45.926;6.724;2023-02-15T01:50:53;1.20;90.70
57564;DHT22;43400;45.926;6.724;2023-02-15T01:53:43;1.00;90.70
57564;DHT22;43400;45.926;6.724;2023-02-15T01:56:23;1.10;90.60
57564;DHT22;43400;45.926;6.724;2023-02-15T01:58:57;1.10;90.60
57564;DHT22;43400;45.926;6.724;2023-02-15T02:01:31;1.00;90.70
57564;DHT22;43400;45.926;6.724;2023-02-15T02:04:16;0.90;91.10
57564;DHT22;43400;45.926;6.724;2023-02-15T02:06:49;1.00;91.10
57564;DHT22;43400;45.926;6.724;2023-02-15T02:09:21;1.00;91.10
57564;DHT22;43400;45.926;6.724;2023-02-15T02:11:53;1.00;91.70
57564;DHT22;43400;45.926;6.724;2023-02-15T02:14:25;1.10;91.70
57564;DHT22;43400;45.926;6.724;2023-02-15T02:16:58;1.00;91.80
57564;DHT22;43400;45.926;6.724;2023-02-15T02:23:18;1.00;91.40
57564;DHT22;43400;45.926;6.724;2023-02-15T02:37:48;1.00;91.80
57564;DHT22;43400;45.926;6.724;2023-02-15T02:43:38;0.90;91.40
57564;DHT22;43400;45.926;6.724;2023-02-15T02:46:26;0.90;91.40
57564;DHT22;43400;45.926;6.724;2023-02-15T02:48:59;0.80;91.30
57564;DHT22;43400;45.926;6.724;2023-02-15T02:51:32;0.80;91.30
57564;DHT22;43400;45.926;6.724;2023-02-15T02:54:05;0.80;91.60
57564;DHT22;43400;45.926;6.724;2023-02-15T02:56:44;0.90;91.30
57564;DHT22;43400;45.926;6.724;2023-02-15T02:59:20;0.80;91.70
57564;DHT22;43400;45.926;6.724;2023-02-15T03:02:00;0.80;91.80
57564;DHT22;43400;45.926;6.724;2023-02-15T03:04:37;0.80;92.30
57564;DHT22;43400;45.926;6.724;2023-02-15T03:07:19;0.80;92.20
57564;DHT22;43400;45.926;6.724;2023-02-15T03:09:53;0.80;92.40
57564;DHT22;43400;45.926;6.724;2023-02-15T03:12:37;0.70;92.50
57564;DHT22;43400;45.926;6.724;2023-02-15T03:15:18;0.70;92.40
57564;DHT22;43400;45.926;6.724;2023-02-15T03:18:00;0.70;92.40
57564;DHT22;43400;45.926;6.724;2023-02-15T03:20:34;0.60;92.20
57564;DHT22;43400;45.926;6.724;2023-02-15T03:23:13;0.60;92.20
57564;DHT22;43400;45.926;6.724;2023-02-15T03:25:50;0.70;92.20
57564;DHT22;43400;45.926;6.724;2023-02-15T03:28:29;0.50;92.50
57564;DHT22;43400;45.926;6.724;2023-02-15T03:31:06;0.50;93.10
57564;DHT22;43400;45.926;6.724;2023-02-15T03:33:42;0.50;92.80
57564;DHT22;43400;45.926;6.724;2023-02-15T03:39:02;0.60;93.10
57564;DHT22;43400;45.926;6.724;2023-02-15T03:42:28;0.60;92.80
57564;DHT22;43400;45.926;6.724;2023-02-15T03:47:42;0.50;92.40
57564;DHT22;43400;45.926;6.724;2023-02-15T03:50:24;0.50;92.50
57564;DHT22;43400;45.926;6.724;2023-02-15T03:52:59;0.40;92.70
57564;DHT22;43400;45.926;6.724;2023-02-15T03:55:34;0.40;92.80
57564;DHT22;43400;45.926;6.724;2023-02-15T03:58:07;0.30;93.20
57564;DHT22;43400;45.926;6.724;2023-02-15T04:00:42;0.30;93.10
57564;DHT22;43400;45.926;6.724;2023-02-15T04:06:06;0.30;93.00
57564;DHT22;43400;45.926;6.724;2023-02-15T04:08:38;0.30;92.80
57564;DHT22;43400;45.926;6.724;2023-02-15T04:11:09;0.30;92.70
57564;DHT22;43400;45.926;6.724;2023-02-15T04:13:41;0.20;92.80
57564;DHT22;43400;45.926;6.724;2023-02-15T04:16:13;0.30;92.70
57564;DHT22;43400;45.926;6.724;2023-02-15T04:18:44;0.30;92.70
57564;DHT22;43400;45.926;6.724;2023-02-15T04:21:16;0.30;92.70
57564;DHT22;43400;45.926;6.724;2023-02-15T04:23:48;0.20;93.10
57564;DHT22;43400;45.926;6.724;2023-02-15T04:26:19;0.20;93.20
57564;DHT22;43400;45.926;6.724;2023-02-15T04:28:51;0.30;92.80
57564;DHT22;43400;45.926;6.724;2023-02-15T04:31:23;0.20;92.80
57564;DHT22;43400;45.926;6.724;2023-02-15T04:33:54;0.30;92.80
57564;DHT22;43400;45.926;6.724;2023-02-15T04:36:26;0.30;92.80
57564;DHT22;43400;45.926;6.724;2023-02-15T04:38:58;0.30;92.80
57564;DHT22;43400;45.926;6.724;2023-02-15T04:41:29;0.30;93.10
57564;DHT22;43400;45.926;6.724;2023-02-15T04:44:01;0.30;93.10
57564;DHT22;43400;45.926;6.724;2023-02-15T04:46:33;0.30;93.10
57564;DHT22;43400;45.926;6.724;2023-02-15T04:49:05;0.20;92.80
57564;DHT22;43400;45.926;6.724;2023-02-15T04:51:37;0.20;92.60
57564;DHT22;43400;45.926;6.724;2023-02-15T04:54:08;0.10;93.20
57564;DHT22;43400;45.926;6.724;2023-02-15T04:56:40;0.10;93.40
57564;DHT22;43400;45.926;6.724;2023-02-15T04:59:12;0.20;93.00
57564;DHT22;43400;45.926;6.724;2023-02-15T05:01:44;0.20;93.00
57564;DHT22;43400;45.926;6.724;2023-02-15T05:04:16;0.20;93.10
57564;DHT22;43400;45.926;6.724;2023-02-15T05:06:47;0.20;93.40
57564;DHT22;43400;45.926;6.724;2023-02-15T05:09:19;0.10;93.50
57564;DHT22;43400;45.926;6.724;2023-02-15T05:11:51;0.10;93.70
57564;DHT22;43400;45.926;6.724;2023-02-15T05:14:22;0.10;93.60
57564;DHT22;43400;45.926;6.724;2023-02-15T05:16:54;0.10;93.40
57564;DHT22;43400;45.926;6.724;2023-02-15T05:19:26;0.10;93.20
57564;DHT22;43400;45.926;6.724;2023-02-15T05:21:57;0.10;93.30
57564;DHT22;43400;45.926;6.724;2023-02-15T05:24:29;0.10;93.40
57564;DHT22;43400;45.926;6.724;2023-02-15T05:27:01;0.10;93.20
57564;DHT22;43400;45.926;6.724;2023-02-15T05:29:32;0.10;93.10
57564;DHT22;43400;45.926;6.724;2023-02-15T05:32:04;0.00;93.20
57564;DHT22;43400;45.926;6.724;2023-02-15T05:34:36;-0.10;93.60
57564;DHT22;43400;45.926;6.724;2023-02-15T05:37:07;-0.10;94.30
57564;DHT22;43400;45.926;6.724;2023-02-15T05:39:39;-0.10;95.00
57564;DHT22;43400;45.926;6.724;2023-02-15T05:42:10;0.00;95.00
57564;DHT22;43400;45.926;6.724;2023-02-15T05:44:42;0.00;94.20
57564;DHT22;43400;45.926;6.724;2023-02-15T05:47:14;-0.10;94.40
57564;DHT22;43400;45.926;6.724;2023-02-15T05:49:45;-0.20;94.80
57564;DHT22;43400;45.926;6.724;2023-02-15T05:52:17;-0.10;94.60
57564;DHT22;43400;45.926;6.724;2023-02-15T05:54:49;-0.20;94.10
57564;DHT22;43400;45.926;6.724;2023-02-15T05:57:20;-0.10;94.00
57564;DHT22;43400;45.926;6.724;2023-02-15T05:59:52;-0.20;93.80
57564;DHT22;43400;45.926;6.724;2023-02-15T06:02:23;-0.10;93.80
57564;DHT22;43400;45.926;6.724;2023-02-15T06:04:55;-0.10;93.60
57564;DHT22;43400;45.926;6.724;2023-02-15T06:07:26;-0.20;94.00
57564;DHT22;43400;45.926;6.724;2023-02-15T06:09:58;-0.30;94.20
57564;DHT22;43400;45.926;6.724;2023-02-15T06:12:30;-0.30;94.80
57564;DHT22;43400;45.926;6.724;2023-02-15T06:15:01;-0.30;94.60
57564;DHT22;43400;45.926;6.724;2023-02-15T06:17:33;-0.30;94.10
57564;DHT22;43400;45.926;6.724;2023-02-15T06:20:05;-0.30;94.40
57564;DHT22;43400;45.926;6.724;2023-02-15T06:22:37;-0.30;94.40
57564;DHT22;43400;45.926;6.724;2023-02-15T06:25:08;-0.30;94.70
57564;DHT22;43400;45.926;6.724;2023-02-15T06:27:43;-0.40;95.20
57564;DHT22;43400;45.926;6.724;2023-02-15T06:30:14;-0.40;95.60
57564;DHT22;43400;45.926;6.724;2023-02-15T06:32:46;-0.40;95.30
57564;DHT22;43400;45.926;6.724;2023-02-15T06:35:18;-0.40;94.90
57564;DHT22;43400;45.926;6.724;2023-02-15T06:37:49;-0.40;95.00
57564;DHT22;43400;45.926;6.724;2023-02-15T06:40:21;-0.30;95.20
57564;DHT22;43400;45.926;6.724;2023-02-15T06:42:52;-0.30;95.10
57564;DHT22;43400;45.926;6.724;2023-02-15T06:45:24;-0.40;95.00
57564;DHT22;43400;45.926;6.724;2023-02-15T06:47:56;-0.30;95.20
57564;DHT22;43400;45.926;6.724;2023-02-15T06:50:28;-0.30;95.30
57564;DHT22;43400;45.926;6.724;2023-02-15T06:52:59;-0.20;95.70
57564;DHT22;43400;45.926;6.724;2023-02-15T06:55:31;-0.20;96.10
57564;DHT22;43400;45.926;6.724;2023-02-15T06:58:02;-0.20;96.30
57564;DHT22;43400;45.926;6.724;2023-02-15T07:00:34;-0.20;96.00
57564;DHT22;43400;45.926;6.724;2023-02-15T07:03:05;-0.20;95.60
57564;DHT22;43400;45.926;6.724;2023-02-15T07:05:37;-0.10;95.90
57564;DHT22;43400;45.926;6.724;2023-02-15T07:08:09;-0.20;95.70
57564;DHT22;43400;45.926;6.724;2023-02-15T07:10:43;-0.20;96.00
57564;DHT22;43400;45.926;6.724;2023-02-15T07:13:15;-0.20;96.10
57564;DHT22;43400;45.926;6.724;2023-02-15T07:15:47;-0.20;96.00
57564;DHT22;43400;45.926;6.724;2023-02-15T07:18:19;-0.20;95.40
57564;DHT22;43400;45.926;6.724;2023-02-15T07:20:51;-0.20;95.40
57564;DHT22;43400;45.926;6.724;2023-02-15T07:23:22;-0.10;95.50
57564;DHT22;43400;45.926;6.724;2023-02-15T07:26:00;-0.10;95.20
57564;DHT22;43400;45.926;6.724;2023-02-15T07:28:33;-0.10;95.00
57564;DHT22;43400;45.926;6.724;2023-02-15T07:31:05;-0.10;95.00
57564;DHT22;43400;45.926;6.724;2023-02-15T07:33:37;-0.10;95.20
57564;DHT22;43400;45.926;6.724;2023-02-15T07:36:09;-0.10;95.00
57564;DHT22;43400;45.926;6.724;2023-02-15T07:38:41;-0.10;94.80
57564;DHT22;43400;45.926;6.724;2023-02-15T07:41:14;0.00;95.00
57564;DHT22;43400;45.926;6.724;2023-02-15T07:43:46;0.00;94.80
57564;DHT22;43400;45.926;6.724;2023-02-15T07:46:18;0.00;94.70
57564;DHT22;43400;45.926;6.724;2023-02-15T07:48:49;0.00;95.10
57564;DHT22;43400;45.926;6.724;2023-02-15T07:51:21;0.00;95.50
57564;DHT22;43400;45.926;6.724;2023-02-15T07:53:52;0.10;95.90
57564;DHT22;43400;45.926;6.724;2023-02-15T07:56:24;0.20;96.10
57564;DHT22;43400;45.926;6.724;2023-02-15T07:58:56;0.20;96.20
57564;DHT22;43400;45.926;6.724;2023-02-15T08:01:34;0.20;96.70
57564;DHT22;43400;45.926;6.724;2023-02-15T08:04:07;0.30;96.70
57564;DHT22;43400;45.926;6.724;2023-02-15T08:06:39;0.40;96.10
57564;DHT22;43400;45.926;6.724;2023-02-15T08:09:11;0.30;95.50
57564;DHT22;43400;45.926;6.724;2023-02-15T08:11:43;0.40;95.30
57564;DHT22;43400;45.926;6.724;2023-02-15T08:14:19;0.40;95.20
57564;DHT22;43400;45.926;6.724;2023-02-15T08:16:52;0.40;95.40
57564;DHT22;43400;45.926;6.724;2023-02-15T08:19:26;0.50;95.00
57564;DHT22;43400;45.926;6.724;2023-02-15T08:22:01;0.50;94.90
57564;DHT22;43400;45.926;6.724;2023-02-15T08:24:35;0.50;94.50
57564;DHT22;43400;45.926;6.724;2023-02-15T08:27:08;0.50;94.30
57564;DHT22;43400;45.926;6.724;2023-02-15T08:29:41;0.50;94.50
57564;DHT22;43400;45.926;6.724;2023-02-15T08:32:12;0.60;94.50
57564;DHT22;43400;45.926;6.724;2023-02-15T08:34:44;0.60;94.20
57564;DHT22;43400;45.926;6.724;2023-02-15T08:37:15;0.70;94.10
57564;DHT22;43400;45.926;6.724;2023-02-15T08:39:47;0.70;94.20
57564;DHT22;43400;45.926;6.724;2023-02-15T08:42:19;0.80;94.20
57564;DHT22;43400;45.926;6.724;2023-02-15T08:44:50;0.80;93.90
57564;DHT22;43400;45.926;6.724;2023-02-15T08:47:22;0.90;93.80
57564;DHT22;43400;45.926;6.724;2023-02-15T08:49:53;0.90;93.70
57564;DHT22;43400;45.926;6.724;2023-02-15T08:52:25;0.90;93.20
57564;DHT22;43400;45.926;6.724;2023-02-15T08:54:56;0.90;93.40
57564;DHT22;43400;45.926;6.724;2023-02-15T08:57:28;0.90;93.50
57564;DHT22;43400;45.926;6.724;2023-02-15T08:59:59;0.90;93.60
57564;DHT22;43400;45.926;6.724;2023-02-15T09:02:31;1.00;93.30
57564;DHT22;43400;45.926;6.724;2023-02-15T09:05:02;1.00;93.30
57564;DHT22;43400;45.926;6.724;2023-02-15T09:07:34;1.00;93.40
57564;DHT22;43400;45.926;6.724;2023-02-15T09:10:06;0.90;93.40
57564;DHT22;43400;45.926;6.724;2023-02-15T09:12:37;0.90;94.00
57564;DHT22;43400;45.926;6.724;2023-02-15T09:15:09;1.00;94.10
57564;DHT22;43400;45.926;6.724;2023-02-15T09:17:41;1.10;93.80
57564;DHT22;43400;45.926;6.724;2023-02-15T09:20:12;1.10;93.60
57564;DHT22;43400;45.926;6.724;2023-02-15T09:22:44;1.10;93.50
57564;DHT22;43400;45.926;6.724;2023-02-15T09:25:16;1.20;93.50
57564;DHT22;43400;45.926;6.724;2023-02-15T09:27:47;1.20;93.30
57564;DHT22;43400;45.926;6.724;2023-02-15T09:30:19;1.30;93.20
57564;DHT22;43400;45.926;6.724;2023-02-15T09:32:51;1.30;93.10
57564;DHT22;43400;45.926;6.724;2023-02-15T09:35:22;1.40;93.10
57564;DHT22;43400;45.926;6.724;2023-02-15T09:37:54;1.40;93.20
57564;DHT22;43400;45.926;6.724;2023-02-15T09:40:26;1.30;93.10
57564;DHT22;43400;45.926;6.724;2023-02-15T09:43:30;1.50;93.10
57564;DHT22;43400;45.926;6.724;2023-02-15T09:48:48;1.60;93.00
57564;DHT22;43400;45.926;6.724;2023-02-15T09:56:49;2.70;93.30
57564;DHT22;43400;45.926;6.724;2023-02-15T09:59:27;3.20;92.60
57564;DHT22;43400;45.926;6.724;2023-02-15T10:07:22;4.10;90.60
57564;DHT22;43400;45.926;6.724;2023-02-15T10:12:47;4.90;90.50
57564;DHT22;43400;45.926;6.724;2023-02-15T10:21:17;6.60;88.00
57564;DHT22;43400;45.926;6.724;2023-02-15T10:26:28;7.50;76.70
57564;DHT22;43400;45.926;6.724;2023-02-15T10:49:42;9.70;59.30
57564;DHT22;43400;45.926;6.724;2023-02-15T10:58:16;14.80;51.20
57564;DHT22;43400;45.926;6.724;2023-02-15T11:01:18;17.00;46.20
57564;DHT22;43400;45.926;6.724;2023-02-15T11:07:10;20.30;38.90
57564;DHT22;43400;45.926;6.724;2023-02-15T11:09:51;21.10;36.90
57564;DHT22;43400;45.926;6.724;2023-02-15T11:12:27;21.30;36.30
57564;DHT22;43400;45.926;6.724;2023-02-15T11:22:30;22.40;36.80
57564;DHT22;43400;45.926;6.724;2023-02-15T11:25:30;23.00;36.60
57564;DHT22;43400;45.926;6.724;2023-02-15T11:28:15;23.30;34.50
57564;DHT22;43400;45.926;6.724;2023-02-15T11:31:25;24.10;34.20
57564;DHT22;43400;45.926;6.724;2023-02-15T11:37:05;24.00;32.90
57564;DHT22;43400;45.926;6.724;2023-02-15T11:39:38;24.80;32.00
57564;DHT22;43400;45.926;6.724;2023-02-15T11:42:15;25.40;31.60
57564;DHT22;43400;45.926;6.724;2023-02-15T11:47:26;25.60;30.50
57564;DHT22;43400;45.926;6.724;2023-02-15T11:49:59;26.00;30.50
57564;DHT22;43400;45.926;6.724;2023-02-15T11:52:31;26.10;30.30
57564;DHT22;43400;45.926;6.724;2023-02-15T11:55:14;26.80;30.50
57564;DHT22;43400;45.926;6.724;2023-02-15T11:58:08;26.70;30.00
57564;DHT22;43400;45.926;6.724;2023-02-15T12:01:44;26.30;30.30
57564;DHT22;43400;45.926;6.724;2023-02-15T12:04:39;25.60;30.00
57564;DHT22;43400;45.926;6.724;2023-02-15T12:07:32;26.30;30.00
57564;DHT22;43400;45.926;6.724;2023-02-15T12:10:26;25.70;30.00
57564;DHT22;43400;45.926;6.724;2023-02-15T12:13:28;25.80;29.80
57564;DHT22;43400;45.926;6.724;2023-02-15T12:16:09;25.50;30.00
57564;DHT22;43400;45.926;6.724;2023-02-15T12:18:45;25.90;30.00
57564;DHT22;43400;45.926;6.724;2023-02-15T12:21:38;26.50;30.20
57564;DHT22;43400;45.926;6.724;2023-02-15T12:24:38;26.20;30.00
57564;DHT22;43400;45.926;6.724;2023-02-15T12:27:16;26.00;30.30
57564;DHT22;43400;45.926;6.724;2023-02-15T12:29:51;25.40;30.20
57564;DHT22;43400;45.926;6.724;2023-02-15T12:32:28;25.40;30.00
57564;DHT22;43400;45.926;6.724;2023-02-15T12:35:14;25.90;30.90
57564;DHT22;43400;45.926;6.724;2023-02-15T12:37:54;25.90;30.40
57564;DHT22;43400;45.926;6.724;2023-02-15T12:40:28;26.30;30.30
57564;DHT22;43400;45.926;6.724;2023-02-15T12:43:00;26.50;30.00
57564;DHT22;43400;45.926;6.724;2023-02-15T12:45:33;26.70;30.50
57564;DHT22;43400;45.926;6.724;2023-02-15T12:48:19;26.30;29.90
57564;DHT22;43400;45.926;6.724;2023-02-15T12:50:51;25.70;30.60
57564;DHT22;43400;45.926;6.724;2023-02-15T12:53:32;26.10;29.70
57564;DHT22;43400;45.926;6.724;2023-02-15T12:56:09;25.90;30.10
57564;DHT22;43400;45.926;6.724;2023-02-15T12:58:41;25.30;30.10
57564;DHT22;43400;45.926;6.724;2023-02-15T13:01:18;25.40;30.00
57564;DHT22;43400;45.926;6.724;2023-02-15T13:04:06;25.50;29.90
57564;DHT22;43400;45.926;6.724;2023-02-15T13:06:49;25.30;30.90
57564;DHT22;43400;45.926;6.724;2023-02-15T13:09:35;26.00;30.60
57564;DHT22;43400;45.926;6.724;2023-02-15T13:12:24;25.70;30.00
57564;DHT22;43400;45.926;6.724;2023-02-15T13:14:57;25.00;30.30
57564;DHT22;43400;45.926;6.724;2023-02-15T13:17:31;25.30;31.10
57564;DHT22;43400;45.926;6.724;2023-02-15T13:20:06;25.70;30.80
57564;DHT22;43400;45.926;6.724;2023-02-15T13:22:42;25.40;30.70
57564;DHT22;43400;45.926;6.724;2023-02-15T13:25:20;24.90;30.20
57564;DHT22;43400;45.926;6.724;2023-02-15T13:27:56;24.40;31.80
57564;DHT22;43400;45.926;6.724;2023-02-15T13:33:37;24.50;30.90
57564;DHT22;43400;45.926;6.724;2023-02-15T13:36:37;24.60;31.20
57564;DHT22;43400;45.926;6.724;2023-02-15T13:42:46;24.40;30.30
57564;DHT22;43400;45.926;6.724;2023-02-15T13:48:25;23.80;31.50
57564;DHT22;43400;45.926;6.724;2023-02-15T13:54:36;25.20;30.60
57564;DHT22;43400;45.926;6.724;2023-02-15T14:11:49;25.70;29.40
57564;DHT22;43400;45.926;6.724;2023-02-15T14:17:20;25.90;30.00
57564;DHT22;43400;45.926;6.724;2023-02-15T14:19:59;26.70;29.60
57564;DHT22;43400;45.926;6.724;2023-02-15T14:22:44;26.80;29.40
57564;DHT22;43400;45.926;6.724;2023-02-15T14:25:38;26.50;29.00
57564;DHT22;43400;45.926;6.724;2023-02-15T14:28:30;26.70;29.30
57564;DHT22;43400;45.926;6.724;2023-02-15T14:31:04;26.30;29.40
57564;DHT22;43400;45.926;6.724;2023-02-15T14:33:40;26.40;29.30
57564;DHT22;43400;45.926;6.724;2023-02-15T14:36:16;25.70;29.40
57564;DHT22;43400;45.926;6.724;2023-02-15T14:39:18;25.60;29.60
57564;DHT22;43400;45.926;6.724;2023-02-15T14:41:59;25.80;29.90
57564;DHT22;43400;45.926;6.724;2023-02-15T14:44:41;25.70;29.50
57564;DHT22;43400;45.926;6.724;2023-02-15T14:47:25;25.90;29.40
57564;DHT22;43400;45.926;6.724;2023-02-15T14:49:58;25.80;29.20
57564;DHT22;43400;45.926;6.724;2023-02-15T14:52:29;26.10;29.70
57564;DHT22;43400;45.926;6.724;2023-02-15T14:55:01;25.90;29.40
57564;DHT22;43400;45.926;6.724;2023-02-15T14:57:33;25.50;29.60
57564;DHT22;43400;45.926;6.724;2023-02-15T15:00:29;24.90;30.00
57564;DHT22;43400;45.926;6.724;2023-02-15T15:03:02;25.60;30.20
57564;DHT22;43400;45.926;6.724;2023-02-15T15:05:50;25.20;29.70
57564;DHT22;43400;45.926;6.724;2023-02-15T15:14:00;24.20;30.00
57564;DHT22;43400;45.926;6.724;2023-02-15T15:19:10;23.60;31.10
57564;DHT22;43400;45.926;6.724;2023-02-15T15:27:44;22.80;32.40
57564;DHT22;43400;45.926;6.724;2023-02-15T15:41:41;21.70;35.70
57564;DHT22;43400;45.926;6.724;2023-02-15T15:48:17;19.90;39.20
57564;DHT22;43400;45.926;6.724;2023-02-15T15:50:21;19.60;39.80
57564;DHT22;43400;45.926;6.724;2023-02-15T15:52:56;19.70;39.50
57564;DHT22;43400;45.926;6.724;2023-02-15T15:55:30;19.90;39.40
57564;DHT22;43400;45.926;6.724;2023-02-15T15:58:05;19.90;39.20
57564;DHT22;43400;45.926;6.724;2023-02-15T16:00:50;19.40;39.40
57564;DHT22;43400;45.926;6.724;2023-02-15T16:03:27;18.60;40.30
57564;DHT22;43400;45.926;6.724;2023-02-15T16:05:58;17.80;40.80
57564;DHT22;43400;45.926;6.724;2023-02-15T16:08:35;17.00;42.30
57564;DHT22;43400;45.926;6.724;2023-02-15T16:11:16;16.40;43.30
57564;DHT22;43400;45.926;6.724;2023-02-15T16:13:50;15.90;43.90
57564;DHT22;43400;45.926;6.724;2023-02-15T16:16:25;15.40;45.10
57564;DHT22;43400;45.926;6.724;2023-02-15T16:18:59;15.10;46.10
57564;DHT22;43400;45.926;6.724;2023-02-15T16:21:33;14.70;46.80
57564;DHT22;43400;45.926;6.724;2023-02-15T16:29:39;13.60;49.60
57564;DHT22;43400;45.926;6.724;2023-02-15T16:32:27;13.50;49.80
57564;DHT22;43400;45.926;6.724;2023-02-15T16:35:00;13.20;50.00
57564;DHT22;43400;45.926;6.724;2023-02-15T16:37:34;12.80;50.80
57564;DHT22;43400;45.926;6.724;2023-02-15T16:40:06;12.60;51.30
57564;DHT22;43400;45.926;6.724;2023-02-15T16:42:38;12.40;51.70
57564;DHT22;43400;45.926;6.724;2023-02-15T16:45:16;12.10;52.30
57564;DHT22;43400;45.926;6.724;2023-02-15T16:47:52;11.90;52.50
57564;DHT22;43400;45.926;6.724;2023-02-15T16:50:30;11.80;52.90
57564;DHT22;43400;45.926;6.724;2023-02-15T16:53:05;11.50;53.60
57564;DHT22;43400;45.926;6.724;2023-02-15T16:55:41;11.30;54.00
57564;DHT22;43400;45.926;6.724;2023-02-15T16:58:17;11.10;54.40
57564;DHT22;43400;45.926;6.724;2023-02-15T17:00:50;10.90;54.70
57564;DHT22;43400;45.926;6.724;2023-02-15T17:03:24;10.70;55.10
57564;DHT22;43400;45.926;6.724;2023-02-15T17:05:59;10.50;55.60
57564;DHT22;43400;45.926;6.724;2023-02-15T17:08:41;10.30;56.10
57564;DHT22;43400;45.926;6.724;2023-02-15T17:11:21;10.20;56.00
57564;DHT22;43400;45.926;6.724;2023-02-15T17:14:18;10.30;55.90
57564;DHT22;43400;45.926;6.724;2023-02-15T17:17:06;10.20;56.50
57564;DHT22;43400;45.926;6.724;2023-02-15T17:19:48;9.80;56.90
57564;DHT22;43400;45.926;6.724;2023-02-15T17:22:23;9.50;58.00
57564;DHT22;43400;45.926;6.724;2023-02-15T17:25:00;9.30;58.40
57564;DHT22;43400;45.926;6.724;2023-02-15T17:27:32;9.20;58.50
57564;DHT22;43400;45.926;6.724;2023-02-15T17:30:16;9.20;58.80
57564;DHT22;43400;45.926;6.724;2023-02-15T17:32:59;9.10;58.90
57564;DHT22;43400;45.926;6.724;2023-02-15T17:35:32;9.00;59.40
57564;DHT22;43400;45.926;6.724;2023-02-15T17:38:18;8.90;59.60
57564;DHT22;43400;45.926;6.724;2023-02-15T17:40:50;8.90;59.20
57564;DHT22;43400;45.926;6.724;2023-02-15T17:43:21;8.90;59.50
57564;DHT22;43400;45.926;6.724;2023-02-15T17:45:53;8.70;59.60
57564;DHT22;43400;45.926;6.724;2023-02-15T17:48:34;8.70;60.60
57564;DHT22;43400;45.926;6.724;2023-02-15T17:51:12;8.60;61.20
57564;DHT22;43400;45.926;6.724;2023-02-15T17:53:44;8.40;61.70
57564;DHT22;43400;45.926;6.724;2023-02-15T17:56:16;8.30;62.10
57564;DHT22;43400;45.926;6.724;2023-02-15T17:58:47;8.20;62.30
57564;DHT22;43400;45.926;6.724;2023-02-15T18:01:20;8.20;63.20
57564;DHT22;43400;45.926;6.724;2023-02-15T18:03:52;8.10;63.20
57564;DHT22;43400;45.926;6.724;2023-02-15T18:06:24;8.10;63.20
57564;DHT22;43400;45.926;6.724;2023-02-15T18:08:55;8.00;63.70
57564;DHT22;43400;45.926;6.724;2023-02-15T18:11:27;8.00;63.40
57564;DHT22;43400;45.926;6.724;2023-02-15T18:13:59;7.90;63.80
57564;DHT22;43400;45.926;6.724;2023-02-15T18:16:33;7.90;63.80
57564;DHT22;43400;45.926;6.724;2023-02-15T18:19:13;7.80;64.10
57564;DHT22;43400;45.926;6.724;2023-02-15T18:21:46;7.60;65.00
57564;DHT22;43400;45.926;6.724;2023-02-15T18:24:20;7.50;65.50
57564;DHT22;43400;45.926;6.724;2023-02-15T18:26:53;7.50;65.80
57564;DHT22;43400;45.926;6.724;2023-02-15T18:29:25;7.30;66.50
57564;DHT22;43400;45.926;6.724;2023-02-15T18:31:58;7.20;66.90
57564;DHT22;43400;45.926;6.724;2023-02-15T18:34:34;7.20;66.90
57564;DHT22;43400;45.926;6.724;2023-02-15T18:37:12;7.20;67.00
57564;DHT22;43400;45.926;6.724;2023-02-15T18:39:47;7.30;66.80
57564;DHT22;43400;45.926;6.724;2023-02-15T18:42:28;7.30;66.70
57564;DHT22;43400;45.926;6.724;2023-02-15T18:45:09;7.20;66.90
57564;DHT22;43400;45.926;6.724;2023-02-15T18:47:45;7.20;67.00
57564;DHT22;43400;45.926;6.724;2023-02-15T18:50:20;7.20;67.20
57564;DHT22;43400;45.926;6.724;2023-02-15T18:52:52;7.10;67.70
57564;DHT22;43400;45.926;6.724;2023-02-15T18:55:25;7.00;67.40
57564;DHT22;43400;45.926;6.724;2023-02-15T18:57:58;7.00;67.60
57564;DHT22;43400;45.926;6.724;2023-02-15T19:00:32;7.00;67.60
57564;DHT22;43400;45.926;6.724;2023-02-15T19:03:04;7.00;67.50
57564;DHT22;43400;45.926;6.724;2023-02-15T19:05:35;6.90;67.60
57564;DHT22;43400;45.926;6.724;2023-02-15T19:08:18;6.90;67.50
57564;DHT22;43400;45.926;6.724;2023-02-15T19:10:51;6.80;67.60
57564;DHT22;43400;45.926;6.724;2023-02-15T19:13:23;6.80;68.00